createdAt,value
2022-11-05T11:09:36.176Z,41.81
2022-11-05T11:12:05.428Z,41.65
2022-11-05T11:14:32.358Z,41.60
2022-11-05T11:17:27.083Z,41.39
2022-11-05T11:20:18.792Z,41.60
2022-11-05T11:23:15.033Z,42.76
2022-11-05T11:26:03.893Z,42.48
2022-11-05T11:28:58.583Z,41.94
2022-11-05T11:31:31.434Z,42.80
2022-11-05T11:34:11.580Z,41.75
2022-11-05T11:36:50.796Z,42.21
2022-11-05T11:39:25.033Z,41.17
2022-11-05T11:42:02.276Z,40.33
2022-11-05T11:44:34.394Z,39.98
2022-11-05T11:47:12.285Z,40.53
2022-11-05T11:49:46.007Z,40.77
2022-11-05T11:52:34.704Z,40.92
2022-11-05T11:55:21.819Z,40.11
2022-11-05T11:57:52.876Z,39.83
2022-11-05T12:00:23.478Z,39.89
2022-11-05T12:03:22.488Z,39.69
2022-11-05T12:06:01.845Z,39.59
2022-11-05T12:09:25.466Z,39.41
2022-11-05T12:12:14.098Z,39.48
2022-11-05T12:14:58.643Z,39.25
2022-11-05T12:17:34.347Z,39.48
2022-11-05T12:20:38.026Z,38.96
2022-11-05T12:23:04.621Z,39.13
2022-11-05T12:25:49.155Z,38.94
2022-11-05T12:28:57.731Z,38.69
2022-11-05T12:31:44.015Z,38.91
2022-11-05T12:34:37.857Z,38.35
2022-11-05T12:37:35.339Z,38.93
2022-11-05T12:40:20.294Z,38.58
2022-11-05T12:42:52.859Z,38.45
2022-11-05T12:45:47.131Z,37.57
2022-11-05T12:48:27.630Z,37.29
2022-11-05T12:51:30.421Z,37.64
2022-11-05T12:54:26.856Z,37.38
2022-11-05T12:56:58.180Z,38.50
2022-11-05T12:59:29.004Z,37.81
2022-11-05T13:02:06.492Z,37.44
2022-11-05T13:04:50.291Z,37.20
2022-11-05T13:07:32.221Z,36.78
2022-11-05T13:10:17.957Z,36.85
2022-11-05T13:12:49.297Z,37.46
2022-11-05T13:15:24.196Z,37.36
2022-11-05T13:17:58.470Z,37.21
2022-11-05T13:20:28.887Z,37.39
2022-11-05T13:23:26.266Z,37.46
2022-11-05T13:25:59.388Z,37.12
2022-11-05T13:28:41.236Z,36.95
2022-11-05T13:31:18.732Z,38.18
2022-11-05T13:33:49.612Z,38.02
2022-11-05T13:36:59.567Z,38.06
2022-11-05T13:39:31.813Z,38.33
2022-11-05T13:42:27.233Z,37.81
2022-11-05T13:45:18.408Z,38.07
2022-11-05T13:47:53.638Z,38.64
2022-11-05T13:50:42.007Z,38.55
2022-11-05T13:53:56.524Z,39.47
2022-11-05T13:56:47.745Z,39.51
2022-11-05T13:59:36.205Z,40.33
2022-11-05T14:02:13.971Z,40.09
2022-11-05T14:04:48.550Z,39.81
2022-11-05T14:07:26.563Z,40.10
2022-11-05T14:09:59.715Z,39.81
2022-11-05T14:12:35.769Z,40.15
2022-11-05T14:15:30.926Z,39.89
2022-11-05T14:18:18.850Z,40.06
2022-11-05T14:20:58.752Z,40.14
2022-11-05T14:23:25.470Z,39.75
2022-11-05T14:25:56.064Z,39.81
2022-11-05T14:28:34.690Z,40.37
2022-11-05T14:31:02.531Z,40.55
2022-11-05T14:33:29.055Z,40.12
2022-11-05T14:36:35.782Z,40.98
2022-11-05T14:39:26.069Z,41.14
2022-11-05T14:42:03.240Z,41.33
2022-11-05T14:44:35.010Z,41.59
2022-11-05T14:47:18.780Z,41.38
2022-11-05T14:49:53.946Z,41.95
2022-11-05T14:52:21.429Z,42.69
2022-11-05T14:54:55.127Z,42.52
2022-11-05T14:57:43.080Z,42.67
2022-11-05T15:00:34.132Z,43.18
2022-11-05T15:03:04.186Z,43.24
2022-11-05T15:05:53.085Z,43.17
2022-11-05T15:08:37.396Z,42.93
2022-11-05T15:11:14.513Z,42.72
2022-11-05T15:14:02.871Z,43.86
2022-11-05T15:16:42.750Z,42.82
2022-11-05T15:19:32.599Z,42.88
2022-11-05T15:22:03.244Z,42.87
2022-11-05T15:24:34.267Z,42.84
2022-11-05T15:27:18.588Z,42.89
2022-11-05T15:29:45.644Z,43.08
2022-11-05T15:32:18.363Z,42.98
2022-11-05T15:34:53.412Z,43.05
2022-11-05T15:37:25.885Z,43.13
2022-11-05T15:39:54.791Z,42.68
2022-11-05T15:42:26.128Z,42.19
2022-11-05T15:44:57.728Z,43.34
2022-11-05T15:47:34.158Z,41.88
2022-11-05T15:50:03.740Z,41.73
2022-11-05T15:52:42.333Z,41.13
2022-11-05T15:55:09.183Z,41.21
2022-11-05T15:57:40.100Z,41.73
2022-11-05T16:00:16.404Z,42.57
2022-11-05T16:02:43.530Z,43.00
2022-11-05T16:05:13.809Z,43.16
2022-11-05T16:07:45.446Z,42.84
2022-11-05T16:10:25.158Z,43.08
2022-11-05T16:12:51.826Z,43.39
2022-11-05T16:15:25.239Z,43.63
2022-11-05T16:17:58.287Z,43.96
2022-11-05T16:20:30.611Z,43.84
2022-11-05T16:23:00.400Z,43.60
2022-11-05T16:25:38.202Z,43.79
2022-11-05T16:28:18.508Z,43.55
2022-11-05T16:30:58.582Z,42.97
2022-11-05T16:33:27.318Z,43.19
2022-11-05T16:35:53.886Z,43.07
2022-11-05T16:38:21.200Z,43.45
2022-11-05T16:40:52.713Z,44.61
2022-11-05T16:43:24.696Z,44.26
2022-11-05T16:45:57.366Z,44.00
2022-11-05T16:48:24.941Z,44.26
2022-11-05T16:50:51.648Z,43.72
2022-11-05T16:53:19.614Z,44.20
2022-11-05T16:55:46.682Z,44.05
2022-11-05T16:58:22.495Z,46.67
2022-11-05T17:00:51.143Z,45.84
2022-11-05T17:03:17.949Z,48.13
2022-11-05T17:05:44.794Z,47.63
2022-11-05T17:08:11.745Z,46.89
2022-11-05T17:10:38.588Z,46.08
2022-11-05T17:13:05.205Z,45.91
2022-11-05T17:15:36.650Z,45.97
2022-11-05T17:18:15.369Z,46.22
2022-11-05T17:20:47.929Z,46.80
2022-11-05T17:23:17.191Z,46.70
2022-11-05T17:25:47.165Z,46.50
2022-11-05T17:28:15.081Z,46.55
2022-11-05T17:30:43.904Z,46.50
2022-11-05T17:33:12.179Z,46.48
2022-11-05T17:35:40.884Z,46.76
2022-11-05T17:38:08.444Z,48.31
2022-11-05T17:40:36.413Z,47.61
2022-11-05T17:43:03.732Z,46.56
2022-11-05T17:45:30.988Z,48.40
2022-11-05T17:47:57.784Z,48.24
2022-11-05T17:50:24.535Z,47.04
2022-11-05T17:52:51.359Z,46.42
2022-11-05T17:55:18.069Z,45.93
2022-11-05T17:57:47.471Z,46.22
2022-11-05T18:00:17.939Z,46.24
2022-11-05T18:02:46.181Z,45.86
2022-11-05T18:05:13.634Z,45.58
2022-11-05T18:07:40.966Z,45.42
2022-11-05T18:10:07.903Z,45.41
2022-11-05T18:12:36.055Z,45.45
2022-11-05T18:15:03.071Z,45.74
2022-11-05T18:17:29.752Z,45.58
2022-11-05T18:19:56.497Z,45.39
2022-11-05T18:22:23.222Z,45.52
2022-11-05T18:24:50.014Z,45.59
2022-11-05T18:27:16.650Z,46.63
2022-11-05T18:29:43.287Z,47.05
2022-11-05T18:32:10.028Z,45.96
2022-11-05T18:34:36.693Z,45.91
2022-11-05T18:37:03.733Z,45.61
2022-11-05T18:39:30.460Z,45.65
2022-11-05T18:41:57.109Z,45.97
2022-11-05T18:44:24.811Z,45.92
2022-11-05T18:46:58.175Z,45.74
2022-11-05T18:49:26.063Z,45.72
2022-11-05T18:51:52.706Z,45.47
2022-11-05T18:54:20.194Z,45.36
2022-11-05T18:56:46.891Z,45.33
2022-11-05T19:02:05.775Z,45.00
2022-11-05T19:04:32.935Z,46.12
2022-11-05T19:07:04.533Z,46.06
2022-11-05T19:09:39.383Z,45.94
2022-11-05T19:12:13.689Z,45.72
2022-11-05T19:14:47.243Z,51.08
2022-11-05T19:17:14.120Z,46.73
2022-11-05T19:19:41.823Z,47.62
2022-11-05T19:22:08.470Z,49.07
2022-11-05T19:24:35.062Z,48.68
2022-11-05T19:27:02.006Z,48.35
2022-11-05T19:29:28.658Z,47.71
2022-11-05T19:31:55.344Z,47.84
2022-11-05T19:34:21.919Z,47.68
2022-11-05T19:36:48.677Z,47.40
2022-11-05T19:39:15.337Z,47.95
2022-11-05T19:41:42.596Z,48.10
2022-11-05T19:44:09.252Z,47.62
2022-11-05T19:46:35.919Z,48.20
2022-11-05T19:49:03.267Z,48.31
2022-11-05T19:51:32.608Z,48.34
2022-11-05T19:54:01.281Z,47.94
2022-11-05T19:56:30.554Z,48.52
2022-11-05T19:58:58.412Z,48.10
2022-11-05T20:01:27.075Z,48.47
2022-11-05T20:03:56.112Z,48.98
2022-11-05T20:06:28.724Z,48.01
2022-11-05T20:11:48.786Z,47.73
2022-11-05T20:14:16.175Z,47.58
2022-11-05T20:16:43.193Z,47.34
2022-11-05T20:19:13.190Z,47.33
2022-11-05T20:21:40.448Z,47.48
2022-11-05T20:24:08.297Z,47.33
2022-11-05T20:26:35.064Z,47.32
2022-11-05T20:29:01.736Z,47.56
2022-11-05T20:31:28.711Z,47.75
2022-11-05T20:33:55.391Z,47.62
2022-11-05T20:36:24.859Z,47.70
2022-11-05T20:38:55.344Z,47.30
2022-11-05T20:41:22.830Z,47.59
2022-11-05T20:43:49.726Z,48.93
2022-11-05T20:46:19.215Z,48.94
2022-11-05T20:48:45.876Z,48.90
2022-11-05T20:51:24.234Z,48.97
2022-11-05T20:53:55.880Z,48.62
2022-11-05T20:56:25.337Z,48.02
2022-11-05T20:58:52.727Z,48.30
2022-11-05T21:01:19.837Z,48.09
2022-11-05T21:03:47.824Z,48.14
2022-11-05T21:06:15.184Z,48.08
2022-11-05T21:08:42.082Z,48.35
2022-11-05T21:11:10.120Z,48.64
2022-11-05T21:13:36.944Z,48.08
2022-11-05T21:16:07.056Z,48.32
2022-11-05T21:18:35.465Z,48.38
2022-11-05T21:21:18.908Z,48.26
2022-11-05T21:23:45.679Z,48.43
2022-11-05T21:26:14.509Z,48.99
2022-11-05T21:28:42.068Z,48.40
2022-11-05T21:31:09.615Z,48.61
2022-11-05T21:33:36.364Z,48.98
2022-11-05T21:36:08.582Z,48.88
2022-11-05T21:38:35.465Z,48.77
2022-11-05T21:41:03.248Z,48.91
2022-11-05T21:43:29.836Z,48.92
2022-11-05T21:46:01.866Z,48.82
2022-11-05T21:48:28.693Z,48.60
2022-11-05T21:51:14.007Z,48.57
2022-11-05T21:53:59.039Z,49.17
2022-11-05T21:56:45.490Z,50.64
2022-11-05T21:59:33.549Z,49.77
2022-11-05T22:02:03.600Z,50.04
2022-11-05T22:04:32.314Z,49.70
2022-11-05T22:06:59.606Z,50.27
2022-11-05T22:09:26.786Z,50.37
2022-11-05T22:11:54.102Z,49.96
2022-11-05T22:14:21.477Z,50.41
2022-11-05T22:16:48.581Z,50.47
2022-11-05T22:19:15.197Z,50.06
2022-11-05T22:21:42.100Z,50.41
2022-11-05T22:24:09.337Z,49.93
2022-11-05T22:26:36.260Z,49.78
2022-11-05T22:29:02.901Z,49.26
2022-11-05T22:31:35.663Z,49.37
2022-11-05T22:34:04.389Z,50.74
2022-11-05T22:36:31.146Z,50.86
2022-11-05T22:38:57.757Z,50.27
2022-11-05T22:41:24.358Z,50.05
2022-11-05T22:43:51.207Z,50.32
2022-11-05T22:46:21.020Z,50.65
2022-11-05T22:48:48.224Z,51.62
2022-11-05T22:51:18.024Z,51.72
2022-11-05T22:53:44.703Z,51.67
2022-11-05T22:56:14.203Z,51.45
2022-11-05T22:58:41.418Z,52.05
2022-11-05T23:01:11.933Z,52.04
2022-11-05T23:03:40.558Z,51.98
2022-11-05T23:06:31.594Z,51.65
2022-11-05T23:09:17.727Z,50.94
2022-11-05T23:11:48.568Z,50.84
2022-11-05T23:14:15.728Z,51.10
2022-11-05T23:17:02.094Z,51.27
2022-11-05T23:19:47.397Z,51.42
2022-11-05T23:22:36.987Z,50.77
2022-11-05T23:25:05.258Z,50.67
2022-11-05T23:27:37.070Z,50.77
2022-11-05T23:30:07.582Z,50.71
2022-11-05T23:32:34.506Z,50.85
2022-11-05T23:35:01.146Z,52.19
2022-11-05T23:37:49.081Z,51.73
2022-11-05T23:40:24.458Z,51.86
2022-11-05T23:43:09.882Z,51.70
2022-11-05T23:45:59.941Z,51.62
2022-11-05T23:48:33.811Z,51.21
2022-11-05T23:51:03.511Z,51.37
2022-11-05T23:53:32.659Z,50.83
2022-11-05T23:56:10.874Z,50.89
2022-11-05T23:58:38.859Z,50.47
